Time;durP1;ratioP1;P1;durP2;ratioP2;P2;SDS_P1;SDS_P2;PMS_P1;PMS_P2;Temp;Humidity;BMP_temperature;BMP_pressure;BME280_temperature;BME280_humidity;BME280_pressure;Samples;Min_cycle;Max_cycle;Signal;HPM_P1;HPM_P2
2022/07/12 00:01:04;;;;;;;6.75;3.53;;;;;;;14.30;100.00;102459.06;5021937;28;20076;-77
2022/07/12 00:03:30;;;;;;;5.10;3.22;;;;;;;14.29;100.00;102462.66;5004997;28;21030;-76
2022/07/12 00:05:56;;;;;;;5.25;3.63;;;;;;;14.29;100.00;102468.00;5019919;28;20052;-76
2022/07/12 00:08:22;;;;;;;4.72;3.38;;;;;;;14.26;100.00;102460.97;5026744;28;20048;-77
2022/07/12 00:10:48;;;;;;;5.43;3.55;;;;;;;14.25;100.00;102468.13;5020856;28;20084;-77
2022/07/12 00:13:15;;;;;;;6.97;3.90;;;;;;;14.23;100.00;102464.59;5008180;28;20113;-77
2022/07/12 00:15:43;;;;;;;6.68;4.07;;;;;;;14.22;100.00;102468.19;5020652;28;20156;-77
2022/07/12 00:18:09;;;;;;;6.20;3.88;;;;;;;14.20;100.00;102472.72;5003724;28;20438;-77
2022/07/12 00:20:35;;;;;;;5.63;4.13;;;;;;;14.20;100.00;102478.06;5015910;28;20048;-77
2022/07/12 00:23:01;;;;;;;6.28;3.92;;;;;;;14.18;100.00;102477.25;5022755;28;20030;-77
2022/07/12 00:25:26;;;;;;;5.55;3.72;;;;;;;14.16;100.00;102475.56;5019322;28;20503;-77
2022/07/12 00:27:52;;;;;;;6.40;4.35;;;;;;;14.09;100.00;102478.44;5022200;28;22152;-77
2022/07/12 00:30:18;;;;;;;6.95;4.10;;;;;;;14.05;100.00;102478.59;5019395;28;20033;-77
2022/07/12 00:32:44;;;;;;;10.18;4.70;;;;;;;14.02;100.00;102471.56;5020838;28;20122;-77
2022/07/12 00:35:10;;;;;;;7.80;4.13;;;;;;;13.94;100.00;102479.81;5018545;28;20037;-77
2022/07/12 00:37:36;;;;;;;11.60;4.38;;;;;;;13.91;100.00;102479.03;5019748;28;20036;-77
2022/07/12 00:40:06;;;;;;;16.45;4.00;;;;;;;13.86;100.00;102487.19;5018831;28;20033;-77
2022/07/12 00:42:32;;;;;;;13.38;4.40;;;;;;;13.84;100.00;102483.72;5018222;28;20111;-77
2022/07/12 00:44:58;;;;;;;9.00;3.97;;;;;;;13.81;100.00;102474.03;5024466;28;20033;-77
2022/07/12 00:47:37;;;;;;;6.28;4.03;;;;;;;13.82;100.00;102477.56;4999792;28;20036;-77
2022/07/12 00:50:12;;;;;;;9.98;3.97;;;;;;;13.82;100.00;102480.22;5016290;28;20041;-76
2022/07/12 00:52:38;;;;;;;7.85;3.88;;;;;;;13.82;100.00;102480.22;5023801;28;20037;-77
2022/07/12 00:55:05;;;;;;;6.82;4.07;;;;;;;13.82;100.00;102480.22;5015654;28;20029;-77
2022/07/12 00:57:32;;;;;;;5.40;3.88;;;;;;;13.82;100.00;102470.44;5022199;28;20040;-77
2022/07/12 00:59:58;;;;;;;6.22;3.90;;;;;;;13.85;100.00;102488.13;5023281;28;20483;-77
2022/07/12 01:02:24;;;;;;;6.72;3.92;;;;;;;13.87;100.00;102488.03;5019919;28;20037;-77
2022/07/12 01:04:50;;;;;;;9.02;3.63;;;;;;;13.87;100.00;102482.72;5000647;28;20037;-76
2022/07/12 01:07:16;;;;;;;8.18;4.15;;;;;;;13.86;100.00;102484.53;5023736;28;20088;-77
2022/07/12 01:09:41;;;;;;;10.02;4.03;;;;;;;13.85;100.00;102483.63;5022899;28;20142;-77
2022/07/12 01:12:10;;;;;;;8.68;4.32;;;;;;;13.87;100.00;102478.28;5020733;28;20456;-77
2022/07/12 01:14:37;;;;;;;8.82;3.90;;;;;;;13.87;100.00;102478.28;5005535;28;20040;-77
2022/07/12 01:17:03;;;;;;;11.65;4.28;;;;;;;13.86;100.00;102473.88;5004027;28;20136;-76
2022/07/12 01:19:32;;;;;;;11.02;4.22;;;;;;;13.83;100.00;102480.16;5006898;28;20073;-77
2022/07/12 01:21:59;;;;;;;17.25;3.67;;;;;;;13.82;100.00;102481.09;4998553;28;20038;-77
2022/07/12 01:24:24;;;;;;;9.32;3.28;;;;;;;13.79;100.00;102472.34;5020610;28;20021;-77
2022/07/12 01:26:50;;;;;;;8.07;3.42;;;;;;;13.77;100.00;102471.53;5022100;28;20398;-77
2022/07/12 01:29:16;;;;;;;5.00;2.80;;;;;;;13.76;100.00;102475.09;5023414;28;20120;-76
2022/07/12 01:31:42;;;;;;;24.85;3.33;;;;;;;13.71;100.00;102476.13;5017435;28;20648;-77
2022/07/12 01:34:08;;;;;;;27.48;3.38;;;;;;;13.69;100.00;102469.13;5024881;28;20042;-76
2022/07/12 01:36:33;;;;;;;10.65;3.17;;;;;;;13.66;100.00;102475.41;5004150;28;20040;-77
2022/07/12 01:39:00;;;;;;;9.55;3.22;;;;;;;13.62;100.00;102480.88;5019992;28;20455;-76
2022/07/12 01:41:25;;;;;;;5.93;3.15;;;;;;;13.57;100.00;102483.69;5017936;28;20609;-77
2022/07/12 01:43:52;;;;;;;4.47;2.88;;;;;;;13.59;100.00;102489.81;5024501;28;20033;-77
2022/07/12 01:46:21;;;;;;;6.07;2.63;;;;;;;13.50;100.00;102487.47;5022479;28;20033;-77
2022/07/12 01:48:46;;;;;;;4.72;2.30;;;;;;;13.40;100.00;102486.84;5015821;28;20041;-77
2022/07/12 01:51:12;;;;;;;6.95;2.67;;;;;;;13.38;100.00;102486.91;5021617;28;20758;-77
2022/07/12 01:53:37;;;;;;;9.18;2.80;;;;;;;13.34;100.00;102490.56;5022477;28;20991;-77
2022/07/12 01:56:03;;;;;;;6.82;2.50;;;;;;;13.27;100.00;102478.38;5020592;28;20574;-77
2022/07/12 01:58:30;;;;;;;6.97;2.67;;;;;;;13.24;100.00;102484.66;5009102;28;20041;-77
2022/07/12 02:00:56;;;;;;;3.35;2.22;;;;;;;13.23;100.00;102482.06;5021718;28;20423;-77
2022/07/12 02:03:22;;;;;;;5.30;2.13;;;;;;;13.21;100.00;102487.41;5024498;28;20022;-76
2022/07/12 02:05:48;;;;;;;4.75;2.38;;;;;;;13.18;100.00;102491.03;5027576;28;22299;-78
2022/07/12 02:08:16;;;;;;;4.30;1.77;;;;;;;13.14;100.00;102484.06;5025970;28;20086;-78
2022/07/12 02:10:43;;;;;;;6.18;2.35;;;;;;;13.11;100.00;102484.16;5028584;28;20037;-77
2022/07/12 02:13:08;;;;;;;9.90;2.22;;;;;;;13.08;100.00;102478.91;5021690;28;20026;-77
2022/07/12 02:15:34;;;;;;;11.57;2.05;;;;;;;13.06;100.00;102475.44;5025659;28;20028;-76
2022/07/12 02:17:59;;;;;;;10.30;2.03;;;;;;;13.07;100.00;102482.50;5029094;28;20056;-77
2022/07/12 02:20:25;;;;;;;7.50;2.15;;;;;;;13.04;100.00;102471.97;5023765;28;20132;-78
2022/07/12 02:22:50;;;;;;;6.95;2.20;;;;;;;13.01;100.00;102472.94;5028417;28;20043;-76
2022/07/12 02:25:16;;;;;;;4.20;2.08;;;;;;;12.99;100.00;102471.22;5023765;28;20048;-77
2022/07/12 02:27:42;;;;;;;2.92;1.67;;;;;;;12.94;100.00;102470.50;5020477;28;20082;-77
2022/07/12 02:30:09;;;;;;;4.75;2.20;;;;;;;12.88;100.00;102469.78;5004533;28;20047;-76
2022/07/12 02:32:35;;;;;;;5.07;2.00;;;;;;;12.85;100.00;102467.19;5025384;28;20038;-77
2022/07/12 02:35:01;;;;;;;9.32;1.60;;;;;;;12.82;100.00;102469.94;5022316;28;20052;-77
2022/07/12 02:37:26;;;;;;;5.05;1.70;;;;;;;12.77;100.00;102470.06;5028416;28;20336;-77
2022/07/12 02:40:52;;;;;;;6.55;1.95;;;;;;;12.73;100.00;102462.22;4993308;28;20579;-78
2022/07/12 02:42:40;;;;;;;4.32;1.60;;;;;;;12.68;100.00;102475.66;5027956;28;20447;-77
2022/07/12 02:45:06;;;;;;;1.88;1.60;;;;;;;12.65;100.00;102466.91;5025662;28;20033;-77
2022/07/12 02:47:31;;;;;;;4.18;1.67;;;;;;;12.62;100.00;102474.06;5028352;28;20034;-77
2022/07/12 02:49:58;;;;;;;5.28;1.77;;;;;;;12.60;100.00;102467.03;5028207;28;20024;-76
2022/07/12 02:52:24;;;;;;;4.10;1.48;;;;;;;12.59;100.00;102468.81;5029430;28;20028;-77
2022/07/12 02:54:50;;;;;;;3.38;1.50;;;;;;;12.57;100.00;102473.31;5028812;28;20091;-77
2022/07/12 02:57:15;;;;;;;3.42;1.50;;;;;;;12.57;100.00;102473.31;5009305;28;20587;-77
2022/07/12 02:59:41;;;;;;;5.45;1.70;;;;;;;12.56;100.00;102476.88;5010759;28;20033;-76
2022/07/12 03:02:06;;;;;;;4.70;1.80;;;;;;;12.56;100.00;102478.66;5026969;28;20029;-76
2022/07/12 03:04:32;;;;;;;1.95;1.42;;;;;;;12.56;100.00;102471.56;5025641;28;20045;-77
2022/07/12 03:07:00;;;;;;;3.10;1.40;;;;;;;12.56;100.00;102471.56;5021940;28;20068;-76
2022/07/12 03:09:26;;;;;;;2.72;1.80;;;;;;;12.57;100.00;102460.00;5027813;28;20669;-77
2022/07/12 03:11:51;;;;;;;1.48;1.30;;;;;;;12.56;100.00;102460.06;5026941;28;20033;-77
2022/07/12 03:14:18;;;;;;;1.35;1.17;;;;;;;12.52;100.00;102461.94;5028687;28;20561;-77
2022/07/12 03:16:43;;;;;;;1.58;1.40;;;;;;;12.54;100.00;102459.22;5025874;28;20055;-76
2022/07/12 03:19:09;;;;;;;1.48;1.35;;;;;;;12.53;100.00;102461.00;5026143;28;20040;-76
2022/07/12 03:21:34;;;;;;;2.08;1.60;;;;;;;12.55;100.00;102456.53;5028896;28;20060;-76
2022/07/12 03:24:00;;;;;;;4.60;1.48;;;;;;;12.57;100.00;102456.47;5025493;28;20025;-76
2022/07/12 03:26:26;;;;;;;1.35;1.25;;;;;;;12.54;100.00;102441.53;5023941;28;20033;-76
2022/07/12 03:28:51;;;;;;;3.15;1.30;;;;;;;12.52;100.00;102447.78;5026706;28;20041;-76
2022/07/12 03:31:17;;;;;;;4.18;1.40;;;;;;;12.48;100.00;102444.34;5026888;28;20530;-77
2022/07/12 03:33:42;;;;;;;1.85;1.50;;;;;;;12.44;100.00;102448.00;5012004;28;20445;-77
2022/07/12 03:36:08;;;;;;;6.70;1.60;;;;;;;12.43;100.00;102448.91;5037158;28;20201;-76
2022/07/12 03:38:39;;;;;;;2.75;1.67;;;;;;;12.42;100.00;102452.47;5027106;28;20153;-76
2022/07/12 03:41:05;;;;;;;2.38;1.83;;;;;;;12.40;100.00;102457.81;5026834;28;20045;-76
2022/07/12 03:43:30;;;;;;;4.40;1.90;;;;;;;12.39;100.00;102456.09;5026801;28;20129;-77
2022/07/12 03:45:56;;;;;;;2.15;1.67;;;;;;;12.35;100.00;102460.63;5024483;28;20159;-77
2022/07/12 03:48:21;;;;;;;2.30;1.73;;;;;;;12.34;100.00;102465.97;5025206;28;20036;-77
2022/07/12 03:50:47;;;;;;;3.00;1.65;;;;;;;12.34;100.00;102479.25;5024365;28;20576;-77
2022/07/12 03:53:13;;;;;;;2.10;1.65;;;;;;;12.32;100.00;102481.94;5023990;28;20033;-76
2022/07/12 03:55:40;;;;;;;1.98;1.77;;;;;;;12.33;100.00;102481.00;5004238;28;20124;-77
2022/07/12 03:58:05;;;;;;;2.80;2.20;;;;;;;12.33;100.00;102478.34;5025633;28;20037;-77
2022/07/12 04:00:30;;;;;;;2.20;1.85;;;;;;;12.34;100.00;102477.47;5024430;28;20114;-77
2022/07/12 04:02:56;;;;;;;5.03;1.70;;;;;;;12.31;100.00;102466.06;5026861;28;20029;-77
2022/07/12 04:05:25;;;;;;;5.28;1.88;;;;;;;12.31;100.00;102460.75;5018810;28;20021;-76
2022/07/12 04:07:51;;;;;;;4.38;2.10;;;;;;;12.32;100.00;102460.69;5025811;28;20488;-77
2022/07/12 04:10:17;;;;;;;5.22;1.95;;;;;;;12.32;100.00;102457.19;5020927;28;20029;-76
2022/07/12 04:12:42;;;;;;;5.32;2.03;;;;;;;12.31;100.00;102455.44;4993326;28;20021;-77
2022/07/12 04:15:11;;;;;;;2.70;1.92;;;;;;;12.32;100.00;102460.69;5026108;28;20029;-76
2022/07/12 04:17:37;;;;;;;3.28;2.05;;;;;;;12.35;100.00;102468.59;5020472;28;20133;-76
2022/07/12 04:20:06;;;;;;;2.40;1.77;;;;;;;12.40;100.00;102459.59;5026359;28;20558;-76
2022/07/12 04:22:31;;;;;;;2.67;2.08;;;;;;;12.45;100.00;102455.03;5023930;28;20107;-76
2022/07/12 04:24:57;;;;;;;3.03;2.20;;;;;;;12.49;100.00;102465.53;5026099;28;20179;-76
2022/07/12 04:27:23;;;;;;;4.00;2.20;;;;;;;12.56;100.00;102468.91;5021060;28;20036;-77
2022/07/12 04:29:48;;;;;;;2.22;1.92;;;;;;;12.62;100.00;102465.19;5026552;28;20423;-76
2022/07/12 04:32:14;;;;;;;2.63;2.00;;;;;;;12.68;100.00;102467.69;5025256;28;20033;-76
2022/07/12 04:34:39;;;;;;;4.63;2.00;;;;;;;12.70;100.00;102472.97;5025223;28;20049;-76
2022/07/12 04:37:05;;;;;;;2.55;2.25;;;;;;;12.75;100.00;102479.03;5026269;28;20080;-76
2022/07/12 04:39:30;;;;;;;3.67;2.47;;;;;;;12.80;100.00;102478.88;5026266;28;20089;-76
2022/07/12 04:41:56;;;;;;;3.17;2.20;;;;;;;12.81;100.00;102480.63;5027923;28;20033;-77
2022/07/12 04:44:21;;;;;;;2.63;2.22;;;;;;;12.86;100.00;102474.25;5024619;28;20128;-77
2022/07/12 04:46:47;;;;;;;2.15;1.88;;;;;;;12.92;100.00;102470.56;5025121;28;20041;-77
2022/07/12 04:49:13;;;;;;;3.05;2.22;;;;;;;12.99;100.00;102480.09;5026037;28;20037;-76
2022/07/12 04:51:39;;;;;;;2.70;2.28;;;;;;;13.08;100.00;102478.06;5008065;28;20559;-76
2022/07/12 04:54:04;;;;;;;2.70;1.98;;;;;;;13.13;100.00;102482.31;5024777;28;20058;-76
2022/07/12 04:56:30;;;;;;;4.35;2.63;;;;;;;13.18;100.00;102485.72;5003635;28;20067;-76
2022/07/12 04:58:56;;;;;;;2.58;2.10;;;;;;;13.25;100.00;102496.16;5023583;28;20391;-76
2022/07/12 05:01:25;;;;;;;2.97;2.28;;;;;;;13.28;100.00;102498.72;5024262;28;20036;-77
2022/07/12 05:03:50;;;;;;;3.15;2.30;;;;;;;13.29;100.00;102487.19;5025110;28;20036;-76
2022/07/12 05:06:16;;;;;;;4.18;2.58;;;;;;;13.34;100.00;102487.91;4990762;28;20029;-76
2022/07/12 05:08:41;;;;;;;3.90;2.70;;;;;;;13.38;100.00;102494.88;5019047;28;20044;-76
2022/07/12 05:11:07;;;;;;;4.13;2.30;;;;;;;13.41;100.00;102488.59;5022719;28;20033;-76
2022/07/12 05:13:32;;;;;;;4.30;2.58;;;;;;;13.46;100.00;102488.47;5003612;28;20736;-76
2022/07/12 05:15:58;;;;;;;3.22;2.47;;;;;;;13.48;100.00;102484.84;5022508;28;20138;-76
2022/07/12 05:18:24;;;;;;;3.13;2.60;;;;;;;13.51;100.00;102482.09;5023243;28;20554;-77
2022/07/12 05:20:49;;;;;;;2.95;2.40;;;;;;;13.56;100.00;102481.94;5020691;28;20624;-76
2022/07/12 05:23:16;;;;;;;3.10;2.65;;;;;;;13.60;100.00;102486.25;5022192;28;20081;-76
2022/07/12 05:25:42;;;;;;;4.50;2.60;;;;;;;13.64;100.00;102482.56;5016176;28;20783;-73
2022/07/12 05:28:07;;;;;;;4.43;2.83;;;;;;;13.70;100.00;102487.69;5022022;28;20116;-73
2022/07/12 05:30:33;;;;;;;4.05;2.95;;;;;;;13.78;100.00;102483.91;5020679;28;20364;-74
2022/07/12 05:32:58;;;;;;;4.40;3.03;;;;;;;13.84;100.00;102481.91;5019568;28;20065;-74
2022/07/12 05:35:24;;;;;;;5.78;2.83;;;;;;;13.90;100.00;102480.81;5020424;28;20082;-74
2022/07/12 05:37:49;;;;;;;3.88;2.90;;;;;;;13.96;100.00;102483.28;5025237;28;20041;-74
2022/07/12 05:40:15;;;;;;;3.60;2.72;;;;;;;14.06;100.00;102485.66;5023109;28;20101;-76
2022/07/12 05:42:40;;;;;;;4.38;3.28;;;;;;;14.16;100.00;102489.72;5022585;28;20516;-76
2022/07/12 05:45:06;;;;;;;5.32;3.53;;;;;;;14.27;100.00;102476.03;5025259;28;20153;-77
2022/07/12 05:47:32;;;;;;;5.32;3.78;;;;;;;14.40;100.00;102471.16;5006581;28;21521;-76
2022/07/12 05:49:57;;;;;;;5.90;3.42;;;;;;;14.55;100.00;102476.84;5024540;28;20029;-76
2022/07/12 05:55:07;;;;;;;5.80;3.80;;;;;;;14.96;100.00;102478.91;5027713;28;20045;-76
2022/07/12 05:57:33;;;;;;;5.30;3.50;;;;;;;15.14;100.00;102482.69;5026105;28;20040;-76
2022/07/12 05:59:59;;;;;;;6.93;4.03;;;;;;;15.30;100.00;102478.50;5025799;28;20056;-76
2022/07/12 06:02:24;;;;;;;5.95;3.67;;;;;;;15.43;100.00;102486.00;5023907;28;20029;-76
2022/07/12 06:04:50;;;;;;;4.28;3.25;;;;;;;15.56;100.00;102479.25;5025714;28;20056;-76
2022/07/12 06:07:16;;;;;;;4.20;3.03;;;;;;;15.69;100.00;102474.25;5025280;28;20400;-76
2022/07/12 06:09:42;;;;;;;3.80;3.10;;;;;;;15.83;100.00;102475.50;5024333;28;20040;-77
2022/07/12 06:12:08;;;;;;;4.47;3.40;;;;;;;15.97;100.00;102478.47;5024003;28;20033;-76
2022/07/12 06:14:36;;;;;;;5.85;3.28;;;;;;;16.12;100.00;102482.31;5025352;28;20096;-76
2022/07/12 06:17:02;;;;;;;4.18;3.00;;;;;;;16.32;100.00;102482.34;5023976;28;20762;-76
2022/07/12 06:19:28;;;;;;;4.03;3.38;;;;;;;16.54;100.00;102477.81;5024446;28;20041;-77
2022/07/12 06:21:54;;;;;;;3.58;2.80;;;;;;;16.69;100.00;102484.25;4991053;28;20032;-76
2022/07/12 06:24:19;;;;;;;3.50;2.90;;;;;;;16.86;100.00;102476.41;5024220;28;20039;-76
2022/07/12 06:26:45;;;;;;;3.47;2.60;;;;;;;16.99;100.00;102482.91;5024587;28;20028;-76
2022/07/12 06:29:10;;;;;;;3.90;3.00;;;;;;;17.13;100.00;102476.97;5025022;28;20036;-76
2022/07/12 06:31:39;;;;;;;3.55;2.90;;;;;;;17.25;100.00;102494.22;5024050;28;20112;-76
2022/07/12 06:34:04;;;;;;;2.75;2.55;;;;;;;17.42;100.00;102490.75;5024673;28;20047;-76
2022/07/12 06:36:30;;;;;;;3.40;2.50;;;;;;;17.59;100.00;102486.38;5024375;28;20531;-76
2022/07/12 06:38:55;;;;;;;3.55;2.80;;;;;;;17.68;100.00;102490.41;5024247;28;20198;-76
2022/07/12 06:41:21;;;;;;;2.95;2.65;;;;;;;17.72;100.00;102482.16;5024098;28;20564;-75
2022/07/12 06:43:47;;;;;;;3.72;3.25;;;;;;;17.76;100.00;102482.88;5025514;28;20083;-76
2022/07/12 06:46:12;;;;;;;4.38;3.13;;;;;;;17.76;100.00;102483.72;5026019;28;20033;-76
2022/07/12 06:48:38;;;;;;;3.33;2.60;;;;;;;17.82;100.00;102484.38;5028318;28;20036;-76
2022/07/12 06:51:06;;;;;;;5.32;2.95;;;;;;;17.89;100.00;102481.31;5028176;28;20040;-76
2022/07/12 06:53:32;;;;;;;2.92;2.63;;;;;;;17.95;100.00;102477.44;5028173;28;20044;-76
2022/07/12 06:55:57;;;;;;;4.35;3.20;;;;;;;18.08;100.00;102471.50;5027297;28;20168;-76
2022/07/12 06:58:23;;;;;;;3.53;2.85;;;;;;;18.25;100.00;102467.94;5026963;28;20665;-76
2022/07/12 07:00:49;;;;;;;3.50;3.10;;;;;;;18.46;100.00;102469.47;5028522;28;20282;-76
2022/07/12 07:03:14;;;;;;;4.10;3.35;;;;;;;18.71;100.00;102475.31;5028759;28;20113;-76
2022/07/12 07:05:40;;;;;;;3.63;3.17;;;;;;;18.87;100.00;102478.88;5029663;28;20189;-82
2022/07/12 07:08:06;;;;;;;3.50;3.17;;;;;;;19.02;100.00;102473.69;5026060;28;20035;-77
2022/07/12 07:10:31;;;;;;;3.13;2.75;;;;;;;19.21;100.00;102472.63;5028415;28;20029;-77
2022/07/12 07:12:57;;;;;;;3.47;2.95;;;;;;;19.43;100.00;102471.41;5026123;28;20463;-77
2022/07/12 07:15:22;;;;;;;3.53;2.97;;;;;;;19.54;100.00;102475.22;5024683;28;20420;-75
2022/07/12 07:17:48;;;;;;;3.67;3.30;;;;;;;19.60;100.00;102468.59;4996259;28;20142;-74
2022/07/12 07:20:13;;;;;;;2.97;2.58;;;;;;;19.65;100.00;102471.91;4973913;28;20124;-74
2022/07/12 07:22:39;;;;;;;3.20;2.90;;;;;;;19.71;100.00;102469.81;4981436;28;20040;-74
2022/07/12 07:25:06;;;;;;;3.30;2.90;;;;;;;19.78;100.00;102472.03;4996356;28;20037;-76
2022/07/12 07:27:32;;;;;;;3.05;2.75;;;;;;;19.84;100.00;102468.13;4991553;28;20041;-73
2022/07/12 07:32:41;;;;;;;4.72;3.47;;;;;;;19.83;100.00;102458.31;4992292;28;20614;-72
2022/07/12 07:35:07;;;;;;;3.42;2.78;;;;;;;19.84;100.00;102464.56;5018586;28;20361;-73
2022/07/12 07:37:34;;;;;;;3.00;2.70;;;;;;;19.90;100.00;102470.44;4994490;28;20155;-73
2022/07/12 07:39:59;;;;;;;4.10;2.85;;;;;;;20.01;100.00;102471.66;5014961;28;20491;-73
2022/07/12 07:42:25;;;;;;;2.85;2.55;;;;;;;20.10;100.00;102473.78;5023284;28;21430;-73
2022/07/12 07:44:50;;;;;;;3.17;2.88;;;;;;;20.12;100.00;102468.31;5023309;28;20055;-73
2022/07/12 07:47:16;;;;;;;3.05;2.75;;;;;;;20.11;100.00;102480.03;5014503;28;20040;-74
2022/07/12 07:49:42;;;;;;;2.97;2.67;;;;;;;20.05;100.00;102483.97;5021554;28;20025;-74
2022/07/12 07:52:07;;;;;;;5.28;2.88;;;;;;;20.01;100.00;102482.41;5019664;28;20033;-74
2022/07/12 07:58:26;;;;;;;3.78;2.92;;;;;;;19.98;100.00;102494.19;5018538;28;20040;-74
2022/07/12 08:03:24;;;;;;;7.35;3.00;;;;;;;19.99;100.00;102484.31;5024068;28;20415;-73
2022/07/12 08:05:50;;;;;;;3.38;3.00;;;;;;;19.98;100.00;102482.59;5010118;28;20512;-73
2022/07/12 08:08:17;;;;;;;3.40;3.10;;;;;;;20.03;100.00;102483.16;5016918;28;20060;-74
2022/07/12 08:10:43;;;;;;;3.58;3.17;;;;;;;20.14;100.00;102479.81;5012333;28;20376;-74
2022/07/12 08:13:09;;;;;;;3.42;3.13;;;;;;;20.35;100.00;102485.72;5017106;28;20061;-73
2022/07/12 08:15:35;;;;;;;3.45;3.15;;;;;;;20.63;100.00;102475.94;5023703;28;20037;-73
2022/07/12 08:18:01;;;;;;;4.15;2.90;;;;;;;20.91;100.00;102482.28;5026494;28;20063;-73
2022/07/12 08:20:27;;;;;;;4.40;3.20;;;;;;;21.16;100.00;102478.03;5025232;28;20033;-73
2022/07/12 08:22:52;;;;;;;3.45;3.15;;;;;;;21.26;100.00;102481.88;5022233;28;20090;-72
2022/07/12 08:25:18;;;;;;;5.28;3.20;;;;;;;21.49;100.00;102478.59;5024499;28;20029;-72
2022/07/12 08:27:43;;;;;;;3.08;2.75;;;;;;;21.76;100.00;102484.00;5002304;28;20036;-72
2022/07/12 08:31:04;;;;;;;;;;;;;;;;;;;;;
2022/07/12 08:33:54;;;;;;;3.65;3.30;;;;;;;22.38;100.00;102468.09;5030143;28;20270;-75
2022/07/12 08:36:20;;;;;;;4.07;3.05;;;;;;;22.62;100.00;102476.31;5035817;28;20186;-75
2022/07/12 08:38:46;;;;;;;3.33;2.85;;;;;;;22.77;99.04;102471.66;5020294;28;20033;-75
2022/07/12 08:41:13;;;;;;;3.92;3.08;;;;;;;22.90;98.69;102473.47;5003417;28;20041;-75
2022/07/12 08:43:39;;;;;;;4.57;2.85;;;;;;;22.93;97.95;102479.50;5013305;28;20035;-76
2022/07/12 08:46:06;;;;;;;3.20;2.90;;;;;;;23.10;98.04;102481.97;5037415;28;20036;-73
2022/07/12 08:48:36;;;;;;;2.78;2.33;;;;;;;23.34;97.29;102482.00;5036953;28;20143;-76
2022/07/12 08:51:06;;;;;;;2.58;2.38;;;;;;;23.49;96.93;102473.72;5020117;28;20029;-74
2022/07/12 08:53:32;;;;;;;3.05;2.75;;;;;;;23.60;93.84;102482.75;5037749;28;20090;-74
2022/07/12 08:55:58;;;;;;;2.38;2.17;;;;;;;23.76;95.45;102486.13;4990051;28;20037;-74
2022/07/12 08:58:24;;;;;;;2.55;2.35;;;;;;;23.91;94.48;102474.13;5019813;28;20078;-77
2022/07/12 09:00:50;;;;;;;4.32;2.83;;;;;;;24.05;93.63;102475.78;5018426;28;20053;-75
2022/07/12 09:03:21;;;;;;;2.40;2.20;;;;;;;24.17;93.53;102478.53;5036521;28;20080;-76
2022/07/12 09:05:54;;;;;;;3.30;2.87;;;;;;;24.27;91.56;102476.81;5003029;28;20207;-76
2022/07/12 09:08:31;;;;;;;3.75;2.63;;;;;;;24.44;89.94;102480.91;5033414;28;20300;-75
2022/07/12 09:11:01;;;;;;;4.88;2.65;;;;;;;24.58;91.26;102489.75;5023888;28;20052;-75
2022/07/12 09:13:50;;;;;;;4.85;2.85;;;;;;;24.68;85.66;102472.66;5023504;28;20224;-76
2022/07/12 09:16:17;;;;;;;3.10;2.50;;;;;;;24.72;86.89;102477.84;5002959;28;20055;-76
2022/07/12 09:18:44;;;;;;;2.35;2.15;;;;;;;24.76;86.21;102485.59;5018642;28;20518;-76
2022/07/12 09:21:21;;;;;;;2.40;2.20;;;;;;;24.77;80.54;102487.31;5022879;28;20090;-76
2022/07/12 09:24:05;;;;;;;2.80;2.30;;;;;;;24.81;83.68;102486.13;5007409;28;20464;-74
2022/07/12 09:26:35;;;;;;;2.47;2.28;;;;;;;24.92;85.67;102487.06;5020103;28;20029;-77
2022/07/12 09:29:11;;;;;;;2.70;2.40;;;;;;;24.89;79.07;102487.34;5002699;28;21531;-76
2022/07/12 09:37:14;;;;;;;2.58;2.05;;;;;;;25.19;82.79;102474.94;5024114;28;20046;-76
2022/07/12 09:39:41;;;;;;;3.97;3.00;;;;;;;25.26;72.00;102476.16;5018489;28;20045;-77
2022/07/12 09:42:10;;;;;;;2.97;2.67;;;;;;;25.13;75.25;102475.47;5025494;28;20041;-77
2022/07/12 09:44:36;;;;;;;2.97;2.60;;;;;;;25.12;77.91;102473.75;5019581;28;20039;-77
2022/07/12 09:47:02;;;;;;;2.92;2.55;;;;;;;25.16;76.93;102470.66;5022642;28;20021;-77
2022/07/12 09:49:28;;;;;;;4.10;2.75;;;;;;;25.29;77.83;102475.06;5025136;28;20952;-76
2022/07/12 09:51:55;;;;;;;3.05;2.75;;;;;;;25.19;76.87;102467.69;5023490;28;20044;-76
2022/07/12 09:54:25;;;;;;;2.58;2.38;;;;;;;25.16;77.38;102462.50;5005241;28;20170;-77
2022/07/12 09:56:53;;;;;;;2.95;2.50;;;;;;;25.21;77.12;102459.41;5024959;28;20040;-76
2022/07/12 09:59:20;;;;;;;4.55;2.90;;;;;;;25.26;76.71;102453.66;5002523;28;20041;-76
2022/07/12 10:01:46;;;;;;;2.90;2.53;;;;;;;25.43;77.16;102460.34;5018564;28;20040;-77
2022/07/12 10:04:13;;;;;;;2.70;2.42;;;;;;;25.53;76.03;102455.91;5024666;28;20025;-77
2022/07/12 10:06:40;;;;;;;4.07;2.58;;;;;;;25.49;75.29;102463.41;5023879;28;20123;-76
2022/07/12 10:09:06;;;;;;;2.80;2.15;;;;;;;25.48;76.22;102463.50;5024171;28;20484;-77
2022/07/12 10:11:32;;;;;;;2.40;2.20;;;;;;;25.48;76.00;102464.38;5018281;28;20095;-77
2022/07/12 10:13:58;;;;;;;2.20;2.10;;;;;;;25.42;74.24;102469.44;5002686;28;20030;-77
2022/07/12 10:16:26;;;;;;;2.70;2.50;;;;;;;25.32;74.56;102464.81;5024686;28;20025;-75
2022/07/12 10:19:20;;;;;;;2.47;2.10;;;;;;;25.19;72.62;102455.97;5025394;28;20463;-74
2022/07/12 10:21:48;;;;;;;3.38;2.30;;;;;;;25.14;72.89;102455.50;5027813;28;20254;-74
2022/07/12 10:24:32;;;;;;;2.20;2.00;;;;;;;25.17;73.18;102461.53;5028022;28;20072;-77
2022/07/12 10:27:18;;;;;;;2.47;2.13;;;;;;;25.22;72.47;102469.28;5022680;28;20029;-77
2022/07/12 10:29:46;;;;;;;2.30;1.90;;;;;;;25.20;70.78;102468.53;5028775;28;20041;-77
2022/07/12 10:32:34;;;;;;;2.20;2.00;;;;;;;25.04;67.30;102474.34;5026585;28;20124;-77
2022/07/12 10:35:12;;;;;;;2.28;1.95;;;;;;;24.76;65.92;102473.88;5021242;28;20087;-77
2022/07/12 10:37:40;;;;;;;4.10;2.67;;;;;;;24.55;71.22;102485.44;5022404;28;20040;-77
2022/07/12 10:40:21;;;;;;;2.05;1.85;;;;;;;24.38;71.42;102479.56;5027806;28;20047;-78
2022/07/12 10:43:05;;;;;;;2.42;2.22;;;;;;;24.34;70.50;102496.16;5026115;28;20033;-78
2022/07/12 10:45:33;;;;;;;3.42;2.92;;;;;;;24.32;69.69;102484.56;5021781;28;20484;-77
2022/07/12 10:48:01;;;;;;;3.25;2.88;;;;;;;24.28;70.55;102482.13;4988495;28;20078;-77
2022/07/12 10:50:45;;;;;;;3.42;2.30;;;;;;;24.34;69.73;102486.19;5026661;28;20128;-77
2022/07/12 10:53:22;;;;;;;2.65;2.42;;;;;;;24.43;66.64;102481.88;5038466;28;20102;-76
2022/07/12 10:56:06;;;;;;;2.83;2.53;;;;;;;24.48;64.61;102481.50;5028397;28;20091;-76
2022/07/12 10:58:36;;;;;;;2.33;2.13;;;;;;;24.58;68.49;102479.81;5027110;28;20422;-76
2022/07/12 11:01:07;;;;;;;2.83;1.90;;;;;;;24.69;70.12;102477.09;5009624;28;20103;-76
2022/07/12 11:03:42;;;;;;;2.67;2.22;;;;;;;24.86;68.65;102469.50;5008796;28;20045;-75
2022/07/12 11:06:17;;;;;;;2.80;2.30;;;;;;;25.01;69.86;102472.75;5022064;28;20668;-76
2022/07/12 11:08:48;;;;;;;2.40;2.10;;;;;;;25.17;68.16;102474.22;5009104;28;20599;-75
2022/07/12 11:11:14;;;;;;;2.10;1.90;;;;;;;25.39;69.18;102469.72;5027618;28;20045;-75
2022/07/12 11:13:40;;;;;;;2.40;2.17;;;;;;;25.48;65.43;102475.22;5027896;28;20029;-77
2022/07/12 11:16:09;;;;;;;3.22;2.28;;;;;;;25.47;64.31;102472.66;5009954;28;20037;-76
2022/07/12 11:18:35;;;;;;;2.42;1.85;;;;;;;25.42;63.11;102472.16;5027030;28;20037;-77
2022/07/12 11:21:02;;;;;;;2.72;2.30;;;;;;;25.41;66.97;102460.47;5027521;28;20048;-77
2022/07/12 11:23:28;;;;;;;2.20;1.80;;;;;;;25.50;67.85;102466.97;5026739;28;20091;-74
2022/07/12 11:25:55;;;;;;;2.38;1.80;;;;;;;25.56;64.69;102465.63;5027110;28;20033;-75
2022/07/12 11:28:23;;;;;;;2.28;1.70;;;;;;;25.61;66.03;102456.09;5027170;28;20625;-76
2022/07/12 11:30:50;;;;;;;2.42;1.50;;;;;;;25.67;67.10;102460.16;5025012;28;20532;-76
2022/07/12 11:33:15;;;;;;;1.52;1.42;;;;;;;25.83;67.29;102454.28;5026635;28;20475;-76
2022/07/12 11:35:44;;;;;;;1.48;1.08;;;;;;;25.97;65.83;102457.66;5025972;28;20029;-76
2022/07/12 11:38:10;;;;;;;2.10;1.70;;;;;;;25.93;65.02;102456.19;5004503;28;20044;-76